createdAt,value
2018-02-18T00:02:27.377Z,21.23
2018-02-18T00:04:55.132Z,21.13
2018-02-18T00:07:23.542Z,23.37
2018-02-18T00:09:51.099Z,24.07
2018-02-18T00:12:18.771Z,25.30
2018-02-18T00:15:02.006Z,23.23
2018-02-18T00:17:30.332Z,22.03
2018-02-18T00:19:57.949Z,22.83
2018-02-18T00:22:25.530Z,22.17
2018-02-18T00:24:53.142Z,21.53
2018-02-18T00:27:20.758Z,21.17
2018-02-18T00:29:48.376Z,20.73
2018-02-18T00:32:15.986Z,21.03
2018-02-18T00:34:44.442Z,22.70
2018-02-18T00:37:12.016Z,21.80
2018-02-18T00:39:39.752Z,22.43
2018-02-18T00:42:07.328Z,21.63
2018-02-18T00:44:35.686Z,21.00
2018-02-18T00:47:03.259Z,20.67
2018-02-18T00:49:31.723Z,20.37
2018-02-18T00:51:59.337Z,20.80
2018-02-18T00:54:27.178Z,20.53
2018-02-18T00:56:54.868Z,20.53
2018-02-18T00:59:22.512Z,21.13
2018-02-18T01:01:50.756Z,20.53
2018-02-18T01:04:18.539Z,22.07
2018-02-18T01:06:46.176Z,21.93
2018-02-18T01:09:13.744Z,22.00
2018-02-18T01:11:41.324Z,20.97
2018-02-18T01:14:08.907Z,21.97
2018-02-18T01:16:36.486Z,22.03
2018-02-18T01:19:04.055Z,21.73
2018-02-18T01:21:31.638Z,23.33
2018-02-18T01:24:00.750Z,22.53
2018-02-18T01:26:28.643Z,22.67
2018-02-18T01:28:56.222Z,21.77
2018-02-18T01:31:24.601Z,23.33
2018-02-18T01:33:52.181Z,22.57
2018-02-18T01:36:19.880Z,22.77
2018-02-18T01:38:47.468Z,24.43
2018-02-18T01:41:15.134Z,22.73
2018-02-18T01:43:42.695Z,22.60
2018-02-18T01:46:10.283Z,23.77
2018-02-18T01:48:37.917Z,23.80
2018-02-18T01:51:05.518Z,25.03
2018-02-18T01:53:33.086Z,23.60
2018-02-18T01:56:01.446Z,23.73
2018-02-18T01:58:29.026Z,23.43
2018-02-18T02:00:56.825Z,25.57
2018-02-18T02:03:25.160Z,26.27
2018-02-18T02:05:52.774Z,24.87
2018-02-18T02:08:21.194Z,25.47
2018-02-18T02:11:31.645Z,24.37
2018-02-18T02:14:00.099Z,21.97
2018-02-18T02:16:27.722Z,23.17
2018-02-18T02:18:56.220Z,24.37
2018-02-18T02:21:23.956Z,24.13
2018-02-18T02:23:51.562Z,22.57
2018-02-18T02:26:19.909Z,24.63
2018-02-18T02:28:47.466Z,23.40
2018-02-18T02:31:15.044Z,23.83
2018-02-18T02:33:42.631Z,21.93
2018-02-18T02:36:10.227Z,23.13
2018-02-18T02:38:37.855Z,24.13
2018-02-18T02:41:05.445Z,24.00
2018-02-18T02:43:33.023Z,25.40
2018-02-18T02:46:00.656Z,26.20
2018-02-18T02:48:28.227Z,26.53
2018-02-18T02:50:55.817Z,26.00
2018-02-18T02:53:23.378Z,26.50
2018-02-18T02:55:51.028Z,24.77
2018-02-18T02:58:18.627Z,24.17
2018-02-18T03:00:46.214Z,23.73
2018-02-18T03:03:13.828Z,25.33
2018-02-18T03:05:42.199Z,24.93
2018-02-18T03:08:09.762Z,25.77
2018-02-18T03:10:37.371Z,23.63
2018-02-18T03:13:04.937Z,25.47
2018-02-18T03:15:32.528Z,25.00
2018-02-18T03:18:00.858Z,26.33
2018-02-18T03:20:28.483Z,25.93
2018-02-18T03:22:56.058Z,23.17
2018-02-18T03:25:24.424Z,23.10
2018-02-18T03:27:52.029Z,22.53
2018-02-18T03:30:19.646Z,23.40
2018-02-18T03:32:47.223Z,24.63
2018-02-18T03:35:14.856Z,23.57
2018-02-18T03:37:42.448Z,23.77
2018-02-18T03:40:10.052Z,25.13
2018-02-18T03:42:37.996Z,25.80
2018-02-18T03:45:05.616Z,25.97
2018-02-18T03:47:33.189Z,25.83
2018-02-18T03:50:00.790Z,24.90
2018-02-18T03:52:29.135Z,25.33
2018-02-18T03:54:56.710Z,25.10
2018-02-18T03:57:24.301Z,24.47
2018-02-18T03:59:51.872Z,25.27
2018-02-18T04:02:19.468Z,25.23
2018-02-18T04:04:47.062Z,23.57
2018-02-18T04:07:14.667Z,20.87
2018-02-18T04:09:42.276Z,21.30
2018-02-18T04:12:10.624Z,21.33
2018-02-18T04:14:38.318Z,20.43
2018-02-18T04:17:05.922Z,21.23
2018-02-18T04:19:34.251Z,21.90
2018-02-18T04:22:01.850Z,20.50
2018-02-18T04:24:30.442Z,20.13
2018-02-18T04:26:58.045Z,20.27
2018-02-18T04:29:25.616Z,19.63
2018-02-18T04:31:54.005Z,19.13
2018-02-18T04:34:22.379Z,19.53
2018-02-18T04:36:49.966Z,17.87
2018-02-18T04:39:18.342Z,18.10
2018-02-18T04:41:45.938Z,19.87
2018-02-18T04:44:14.291Z,19.43
2018-02-18T04:46:41.884Z,19.10
2018-02-18T04:49:09.488Z,19.33
2018-02-18T04:51:37.084Z,17.97
2018-02-18T04:54:04.649Z,17.93
2018-02-18T04:56:32.263Z,16.77
2018-02-18T04:58:59.834Z,18.10
2018-02-18T05:01:27.417Z,18.30
2018-02-18T05:03:54.998Z,16.93
2018-02-18T05:06:22.594Z,16.17
2018-02-18T05:08:50.244Z,18.60
2018-02-18T05:11:18.608Z,16.07
2018-02-18T05:13:46.183Z,17.23
2018-02-18T05:16:13.766Z,18.67
2018-02-18T05:18:41.347Z,17.33
2018-02-18T05:21:09.735Z,18.43
2018-02-18T05:23:37.297Z,17.20
2018-02-18T05:26:04.884Z,17.87
2018-02-18T05:28:33.326Z,17.40
2018-02-18T05:31:00.910Z,17.87
2018-02-18T05:33:28.466Z,19.10
2018-02-18T05:35:56.090Z,17.83
2018-02-18T05:38:23.651Z,18.90
2018-02-18T05:40:51.323Z,19.37
2018-02-18T05:43:18.926Z,18.93
2018-02-18T05:45:47.358Z,19.33
2018-02-18T05:48:15.031Z,18.80
2018-02-18T05:50:42.612Z,17.83
2018-02-18T05:53:10.269Z,17.70
2018-02-18T05:55:38.823Z,19.57
2018-02-18T05:58:07.307Z,23.67
2018-02-18T06:00:34.887Z,28.97
2018-02-18T06:03:03.255Z,23.90
2018-02-18T06:05:30.871Z,23.67
2018-02-18T06:07:59.248Z,20.53
2018-02-18T06:10:27.596Z,19.67
2018-02-18T06:12:55.195Z,18.27
2018-02-18T06:15:22.785Z,17.50
2018-02-18T06:17:51.146Z,16.77
2018-02-18T06:20:18.732Z,16.47
2018-02-18T06:22:46.340Z,16.10
2018-02-18T06:25:13.912Z,16.23
2018-02-18T06:27:41.623Z,16.03
2018-02-18T06:30:09.433Z,14.83
2018-02-18T06:32:37.976Z,15.40
2018-02-18T06:35:05.557Z,14.83
2018-02-18T06:37:33.164Z,16.03
2018-02-18T06:40:01.536Z,15.13
2018-02-18T06:42:29.214Z,14.30
2018-02-18T06:44:56.805Z,15.07
2018-02-18T06:47:25.176Z,14.63
2018-02-18T06:49:52.803Z,15.47
2018-02-18T06:52:20.465Z,15.70
2018-02-18T06:54:48.950Z,15.07
2018-02-18T06:57:17.278Z,14.07
2018-02-18T06:59:44.959Z,14.73
2018-02-18T07:02:13.343Z,14.50
2018-02-18T07:04:40.948Z,16.13
2018-02-18T07:07:08.543Z,16.00
2018-02-18T07:09:36.153Z,16.50
2018-02-18T07:12:03.759Z,17.20
2018-02-18T07:14:31.321Z,17.23
2018-02-18T07:16:58.931Z,15.97
2018-02-18T07:19:26.499Z,18.73
2018-02-18T07:21:54.166Z,18.20
2018-02-18T07:24:21.812Z,17.30
2018-02-18T07:26:49.497Z,17.07
2018-02-18T07:29:17.098Z,17.43
2018-02-18T07:31:45.489Z,16.87
2018-02-18T07:34:13.892Z,17.13
2018-02-18T07:36:41.484Z,17.20
2018-02-18T07:39:09.058Z,18.47
2018-02-18T07:41:36.658Z,16.27
2018-02-18T07:44:04.349Z,17.03
2018-02-18T07:46:31.948Z,15.37
2018-02-18T07:48:59.580Z,16.50
2018-02-18T07:51:27.156Z,17.10
2018-02-18T07:53:54.806Z,17.50
2018-02-18T07:56:22.420Z,17.33
2018-02-18T07:58:50.115Z,18.03
2018-02-18T08:01:18.508Z,18.07
2018-02-18T08:03:46.901Z,18.60
2018-02-18T08:06:15.313Z,18.13
2018-02-18T08:08:42.968Z,17.93
2018-02-18T08:11:11.382Z,20.57
2018-02-18T08:13:41.166Z,22.20
2018-02-18T08:16:10.552Z,22.57
2018-02-18T08:18:38.918Z,21.30
2018-02-18T08:21:06.511Z,18.53
2018-02-18T08:23:34.830Z,19.13
2018-02-18T08:26:02.433Z,20.03
2018-02-18T08:28:30.027Z,19.03
2018-02-18T08:30:57.635Z,19.57
2018-02-18T08:33:25.963Z,20.60
2018-02-18T08:35:54.436Z,18.80
2018-02-18T08:38:22.063Z,18.30
2018-02-18T08:40:49.776Z,20.50
2018-02-18T08:43:17.378Z,17.60
2018-02-18T08:45:45.619Z,18.23
2018-02-18T08:48:13.309Z,18.50
2018-02-18T08:50:40.960Z,19.20
2018-02-18T08:53:09.682Z,19.30
2018-02-18T08:55:37.406Z,19.43
2018-02-18T08:58:06.256Z,22.30
2018-02-18T09:00:33.859Z,20.80
2018-02-18T09:03:03.069Z,19.77
2018-02-18T09:05:31.471Z,18.67
2018-02-18T09:07:59.209Z,19.47
2018-02-18T09:10:26.883Z,19.27
2018-02-18T09:12:54.464Z,19.53
2018-02-18T09:15:22.122Z,18.37
2018-02-18T09:17:49.707Z,17.90
2018-02-18T09:20:17.318Z,17.17
2018-02-18T09:22:45.879Z,17.53
2018-02-18T09:25:13.515Z,17.80
2018-02-18T09:27:41.374Z,17.67
2018-02-18T09:30:09.031Z,17.80
2018-02-18T09:32:38.121Z,20.07
2018-02-18T09:35:06.767Z,17.00
2018-02-18T09:37:34.463Z,17.90
2018-02-18T09:40:02.700Z,17.47
2018-02-18T09:45:44.031Z,18.07
2018-02-18T09:48:11.916Z,17.50
2018-02-18T09:50:39.608Z,17.87
2018-02-18T09:54:05.306Z,16.50
2018-02-18T09:56:32.905Z,17.10
2018-02-18T09:59:01.744Z,17.60
2018-02-18T10:01:29.625Z,17.43
2018-02-18T10:03:58.259Z,17.23
2018-02-18T10:06:25.946Z,17.67
2018-02-18T10:08:53.564Z,16.47
2018-02-18T10:11:21.230Z,24.13
2018-02-18T10:13:49.102Z,26.07
2018-02-18T10:16:16.725Z,16.73
2018-02-18T10:18:44.361Z,16.93
2018-02-18T10:21:12.701Z,16.87
2018-02-18T10:23:40.539Z,15.57
2018-02-18T10:26:08.167Z,16.50
2018-02-18T10:28:35.736Z,15.57
2018-02-18T10:31:04.210Z,14.93
2018-02-18T10:33:31.787Z,16.23
2018-02-18T10:35:59.422Z,16.37
2018-02-18T10:38:27.025Z,16.07
2018-02-18T10:40:54.691Z,15.77
2018-02-18T10:43:22.294Z,14.97
2018-02-18T10:45:50.731Z,14.43
2018-02-18T10:48:18.334Z,15.10
2018-02-18T10:50:45.954Z,15.20
2018-02-18T10:53:14.331Z,14.13
2018-02-18T10:55:42.717Z,14.40
2018-02-18T10:58:11.173Z,13.43
2018-02-18T11:00:39.587Z,14.87
2018-02-18T11:03:07.171Z,14.50
2018-02-18T11:05:34.795Z,14.37
2018-02-18T11:08:02.428Z,13.80
2018-02-18T11:10:30.842Z,14.43
2018-02-18T11:12:58.605Z,13.97
2018-02-18T11:15:26.983Z,14.63
2018-02-18T11:17:55.385Z,15.23
2018-02-18T11:20:23.736Z,31.37
2018-02-18T11:22:51.340Z,15.57
2018-02-18T11:25:18.990Z,13.77
2018-02-18T11:27:46.660Z,13.87
2018-02-18T11:30:14.288Z,13.93
2018-02-18T11:32:41.913Z,13.93
2018-02-18T11:35:09.530Z,13.33
2018-02-18T11:37:37.163Z,13.83
2018-02-18T11:40:04.823Z,13.23
2018-02-18T11:42:32.394Z,13.20
2018-02-18T11:45:00.072Z,14.17
2018-02-18T11:47:27.686Z,13.33
2018-02-18T11:49:56.044Z,13.17
2018-02-18T11:52:23.618Z,12.60
2018-02-18T11:54:51.263Z,12.83
2018-02-18T11:57:18.831Z,12.50
2018-02-18T11:59:47.059Z,12.43
2018-02-18T12:02:14.675Z,13.03
2018-02-18T12:04:42.280Z,12.03
2018-02-18T12:07:09.903Z,10.77
2018-02-18T12:09:38.859Z,11.63
2018-02-18T12:12:06.486Z,12.33
2018-02-18T12:14:34.144Z,12.20
2018-02-18T12:17:02.572Z,12.73
2018-02-18T12:19:30.210Z,12.13
2018-02-18T12:21:59.011Z,11.30
2018-02-18T12:24:27.606Z,12.80
2018-02-18T12:26:55.973Z,10.73
2018-02-18T12:29:23.628Z,10.73
2018-02-18T12:31:51.258Z,11.40
2018-02-18T12:34:18.892Z,14.27
2018-02-18T12:36:46.586Z,17.83
2018-02-18T12:39:15.091Z,13.60
2018-02-18T12:41:42.709Z,11.63
2018-02-18T12:44:10.407Z,13.87
2018-02-18T12:46:39.189Z,30.87
2018-02-18T12:49:06.847Z,11.67
2018-02-18T12:51:34.535Z,12.00
2018-02-18T12:54:02.185Z,12.00
2018-02-18T12:56:30.786Z,10.27
2018-02-18T12:58:58.456Z,12.10
2018-02-18T13:03:59.739Z,11.70
2018-02-18T13:06:28.358Z,12.23
2018-02-18T13:08:56.008Z,11.90
2018-02-18T13:11:23.631Z,11.90
2018-02-18T13:13:52.976Z,11.77
2018-02-18T13:16:22.098Z,12.70
2018-02-18T13:18:49.711Z,13.57
2018-02-18T13:21:17.327Z,12.37
2018-02-18T13:23:45.008Z,11.87
2018-02-18T13:26:13.368Z,11.70
2018-02-18T13:28:41.014Z,11.37
2018-02-18T13:31:08.627Z,11.27
2018-02-18T13:33:36.331Z,11.63
2018-02-18T13:36:03.947Z,12.13
2018-02-18T13:38:36.938Z,12.53
2018-02-18T13:41:04.820Z,11.80
2018-02-18T13:43:33.491Z,11.70
2018-02-18T13:46:02.760Z,11.70
2018-02-18T13:48:30.372Z,11.43
2018-02-18T13:50:58.763Z,11.10
2018-02-18T13:53:27.143Z,11.60
2018-02-18T13:56:09.567Z,11.97
2018-02-18T13:58:38.742Z,11.13
2018-02-18T14:01:06.340Z,10.80
2018-02-18T14:03:33.933Z,10.83
2018-02-18T14:06:02.300Z,10.73
2018-02-18T14:08:30.021Z,9.50
2018-02-18T14:10:57.647Z,11.17
2018-02-18T14:13:25.251Z,11.10
2018-02-18T14:15:53.680Z,15.40
2018-02-18T14:18:21.247Z,14.43
2018-02-18T14:20:49.015Z,12.53
2018-02-18T14:23:16.628Z,14.47
2018-02-18T14:25:44.192Z,10.53
2018-02-18T14:28:11.822Z,10.27
2018-02-18T14:30:39.475Z,9.13
2018-02-18T14:33:07.823Z,9.13
2018-02-18T14:35:36.142Z,9.10
2018-02-18T14:38:03.810Z,9.57
2018-02-18T14:40:33.019Z,9.53
2018-02-18T14:43:13.393Z,9.17
2018-02-18T14:45:52.889Z,9.07
2018-02-18T14:48:32.426Z,9.30
2018-02-18T14:51:12.093Z,9.50
2018-02-18T14:53:51.418Z,9.40
2018-02-18T14:56:31.682Z,9.40
2018-02-18T14:59:00.110Z,8.93
2018-02-18T15:01:27.717Z,8.83
2018-02-18T15:03:56.080Z,9.30
2018-02-18T15:06:23.698Z,8.70
2018-02-18T15:08:51.287Z,9.10
2018-02-18T15:11:19.694Z,8.83
2018-02-18T15:13:47.314Z,9.63
2018-02-18T15:16:15.899Z,9.73
2018-02-18T15:18:43.861Z,9.63
2018-02-18T15:21:11.453Z,9.23
2018-02-18T15:23:39.076Z,9.30
2018-02-18T15:26:06.678Z,9.43
2018-02-18T15:28:34.264Z,9.17
2018-02-18T15:31:02.005Z,9.77
2018-02-18T15:33:30.688Z,9.60
2018-02-18T15:35:58.329Z,10.13
2018-02-18T15:38:26.852Z,9.73
2018-02-18T15:40:54.476Z,9.20
2018-02-18T15:43:22.990Z,9.53
2018-02-18T15:45:51.359Z,9.73
2018-02-18T15:48:19.020Z,9.27
2018-02-18T15:50:46.702Z,20.40
2018-02-18T15:53:17.688Z,17.80
2018-02-18T15:55:45.359Z,52.37
2018-02-18T15:58:13.008Z,23.30
2018-02-18T16:00:40.662Z,23.93
2018-02-18T16:03:08.296Z,63.23
2018-02-18T16:05:36.695Z,22.33
2018-02-18T16:08:04.409Z,14.93
2018-02-18T16:10:32.121Z,10.30
2018-02-18T16:12:59.742Z,10.27
2018-02-18T16:15:28.921Z,9.30
2018-02-18T16:17:56.562Z,9.40
2018-02-18T16:20:24.139Z,8.93
2018-02-18T16:22:51.873Z,9.43
2018-02-18T16:25:19.551Z,10.00
2018-02-18T16:27:47.722Z,10.00
2018-02-18T16:30:16.068Z,10.37
2018-02-18T16:32:44.789Z,9.97
2018-02-18T16:35:12.427Z,10.23
2018-02-18T16:37:40.196Z,9.37
2018-02-18T16:40:08.656Z,9.37
2018-02-18T16:42:36.279Z,10.33
2018-02-18T16:45:05.453Z,10.43
2018-02-18T16:47:33.820Z,10.03
2018-02-18T16:50:01.409Z,10.13
2018-02-18T16:52:29.831Z,10.00
2018-02-18T16:54:57.456Z,10.03
2018-02-18T16:57:25.109Z,10.07
2018-02-18T16:59:52.767Z,10.93
2018-02-18T17:02:20.471Z,11.00
2018-02-18T17:04:48.087Z,29.27
2018-02-18T17:07:15.718Z,57.27
2018-02-18T17:09:43.327Z,83.40
2018-02-18T17:12:10.935Z,27.43
2018-02-18T17:14:38.582Z,11.80
2018-02-18T17:17:06.217Z,10.50
2018-02-18T17:19:33.823Z,11.10
2018-02-18T17:22:01.488Z,10.97
2018-02-18T17:24:30.565Z,11.23
2018-02-18T17:27:04.046Z,10.10
2018-02-18T17:29:32.968Z,10.63
2018-02-18T17:32:01.085Z,10.30
2018-02-18T17:34:29.082Z,10.57
2018-02-18T17:36:59.071Z,10.87
2018-02-18T17:39:27.156Z,10.57
2018-02-18T17:41:55.963Z,11.50
2018-02-18T17:44:23.936Z,11.53
2018-02-18T17:46:51.991Z,11.23
2018-02-18T17:49:20.936Z,11.43
2018-02-18T17:51:49.047Z,11.10
2018-02-18T17:54:18.680Z,12.03
2018-02-18T17:56:46.744Z,12.43
2018-02-18T17:59:14.900Z,12.57
2018-02-18T18:01:42.958Z,12.43
2018-02-18T18:04:12.037Z,11.87
2018-02-18T18:06:40.137Z,13.00
2018-02-18T18:09:07.759Z,13.43
2018-02-18T18:11:35.341Z,12.57
2018-02-18T18:14:02.959Z,10.57
2018-02-18T18:16:30.856Z,11.33
2018-02-18T18:18:58.970Z,40.37
2018-02-18T18:21:27.099Z,26.67
2018-02-18T18:23:55.212Z,32.77
2018-02-18T18:26:23.784Z,30.87
2018-02-18T18:28:52.419Z,25.23
2018-02-18T18:31:20.057Z,14.87
2018-02-18T18:33:49.051Z,11.90
2018-02-18T18:36:17.235Z,11.10
2018-02-18T18:38:45.257Z,11.17
2018-02-18T18:41:14.608Z,11.30
2018-02-18T18:43:43.960Z,13.33
2018-02-18T18:46:11.960Z,14.10
2018-02-18T18:48:40.829Z,14.17
2018-02-18T18:51:08.989Z,13.70
2018-02-18T18:53:36.583Z,12.33
2018-02-18T18:56:04.975Z,12.30
2018-02-18T18:58:32.712Z,11.67
2018-02-18T19:01:00.418Z,12.20
2018-02-18T19:03:29.962Z,12.10
2018-02-18T19:05:58.297Z,12.17
2018-02-18T19:08:25.891Z,13.40
2018-02-18T19:10:53.458Z,13.50
2018-02-18T19:13:21.218Z,13.23
2018-02-18T19:15:48.878Z,16.13
2018-02-18T19:18:16.512Z,14.57
2018-02-18T19:20:44.115Z,13.63
2018-02-18T19:23:12.134Z,15.43
2018-02-18T19:25:40.199Z,47.17
2018-02-18T19:28:09.598Z,43.50
2018-02-18T19:30:39.890Z,31.53
2018-02-18T19:33:09.247Z,17.73
2018-02-18T19:35:37.725Z,14.67
2018-02-18T19:38:05.331Z,15.90
2018-02-18T19:40:33.421Z,12.97
2018-02-18T19:43:02.192Z,13.83
2018-02-18T19:45:29.859Z,11.83
2018-02-18T19:47:57.544Z,12.63
2018-02-18T19:50:25.222Z,11.57
2018-02-18T19:52:52.814Z,12.33
2018-02-18T19:55:20.417Z,12.97
2018-02-18T19:57:48.041Z,11.67
2018-02-18T20:00:15.630Z,12.73
2018-02-18T20:02:43.216Z,12.23
2018-02-18T20:05:11.561Z,13.40
2018-02-18T20:07:39.287Z,13.40
2018-02-18T20:10:06.878Z,13.73
2018-02-18T20:12:34.474Z,13.50
2018-02-18T20:15:02.823Z,14.27
2018-02-18T20:17:30.648Z,14.90
2018-02-18T20:19:58.309Z,14.83
2018-02-18T20:22:25.965Z,14.27
2018-02-18T20:24:53.776Z,13.57
2018-02-18T20:27:21.420Z,12.77
2018-02-18T20:29:49.966Z,11.83
2018-02-18T20:32:17.874Z,23.83
2018-02-18T20:34:46.220Z,21.30
2018-02-18T20:37:14.220Z,14.93
2018-02-18T20:39:41.864Z,14.20
2018-02-18T20:42:09.797Z,14.23
2018-02-18T20:44:37.450Z,14.20
2018-02-18T20:47:05.033Z,14.83
2018-02-18T20:49:32.625Z,13.80
2018-02-18T20:52:00.260Z,12.77
2018-02-18T20:54:27.844Z,12.33
2018-02-18T20:56:55.495Z,12.33
2018-02-18T20:59:23.819Z,12.00
2018-02-18T21:01:51.426Z,11.93
2018-02-18T21:04:19.809Z,11.93
2018-02-18T21:06:48.281Z,11.70
2018-02-18T21:09:15.881Z,11.57
2018-02-18T21:11:44.224Z,11.90
2018-02-18T21:14:11.792Z,11.70
2018-02-18T21:16:39.389Z,11.97
2018-02-18T21:19:06.994Z,11.37
2018-02-18T21:21:35.340Z,12.37
2018-02-18T21:24:02.914Z,11.13
2018-02-18T21:26:30.519Z,12.70
2018-02-18T21:28:58.079Z,12.57
2018-02-18T21:31:25.655Z,12.67
2018-02-18T21:33:53.238Z,12.57
2018-02-18T21:36:21.603Z,12.97
2018-02-18T21:38:49.193Z,12.23
2018-02-18T21:41:16.814Z,12.17
2018-02-18T21:43:44.382Z,13.40
2018-02-18T21:46:11.973Z,13.73
2018-02-18T21:48:40.361Z,14.00
2018-02-18T21:51:09.118Z,13.67
2018-02-18T21:53:37.586Z,12.67
2018-02-18T21:56:05.200Z,15.80
2018-02-18T21:58:32.796Z,14.27
2018-02-18T22:01:00.368Z,13.60
2018-02-18T22:03:27.976Z,14.27
2018-02-18T22:05:55.564Z,14.60
2018-02-18T22:08:23.157Z,13.00
2018-02-18T22:10:50.777Z,13.57
2018-02-18T22:13:18.376Z,14.70
2018-02-18T22:15:46.017Z,14.80
2018-02-18T22:18:13.602Z,14.83
2018-02-18T22:20:41.240Z,13.97
2018-02-18T22:23:08.836Z,15.03
2018-02-18T22:25:36.457Z,14.83
2018-02-18T22:28:04.824Z,14.33
2018-02-18T22:30:32.427Z,14.40
2018-02-18T22:33:00.777Z,15.57
2018-02-18T22:35:29.129Z,14.93
2018-02-18T22:37:57.597Z,15.57
2018-02-18T22:40:25.959Z,14.13
2018-02-18T22:42:53.586Z,15.60
2018-02-18T22:45:21.180Z,14.50
2018-02-18T22:47:48.780Z,14.90
2018-02-18T22:50:16.411Z,15.87
2018-02-18T22:52:44.000Z,15.53
2018-02-18T22:55:11.598Z,16.00
2018-02-18T22:57:39.446Z,15.13
2018-02-18T23:00:07.033Z,15.07
2018-02-18T23:02:35.424Z,15.10
2018-02-18T23:05:08.535Z,16.30
2018-02-18T23:07:36.133Z,16.03
2018-02-18T23:10:04.497Z,15.80
2018-02-18T23:12:32.085Z,16.50
2018-02-18T23:15:00.448Z,16.50
2018-02-18T23:17:28.780Z,15.60
2018-02-18T23:19:56.406Z,16.30
2018-02-18T23:22:23.994Z,15.30
2018-02-18T23:24:51.576Z,15.93
2018-02-18T23:27:19.197Z,16.90
2018-02-18T23:29:46.787Z,17.20
2018-02-18T23:32:14.407Z,16.33
2018-02-18T23:34:42.747Z,16.20
2018-02-18T23:37:10.331Z,17.17
2018-02-18T23:39:37.980Z,16.07
2018-02-18T23:42:05.565Z,17.93
2018-02-18T23:44:33.150Z,16.03
2018-02-18T23:47:00.711Z,17.50
2018-02-18T23:49:28.284Z,17.03
2018-02-18T23:51:55.932Z,17.37
2018-02-18T23:54:23.521Z,17.50
2018-02-18T23:56:51.108Z,17.03
2018-02-18T23:59:18.698Z,17.33
